createdAt,value
2018-08-07T00:00:33.245Z,20.10
2018-08-07T00:03:02.110Z,20.10
2018-08-07T00:05:31.001Z,20.00
2018-08-07T00:07:59.816Z,19.80
2018-08-07T00:10:28.751Z,19.60
2018-08-07T00:12:57.592Z,19.60
2018-08-07T00:15:28.344Z,19.60
2018-08-07T00:20:25.706Z,19.60
2018-08-07T00:22:54.880Z,19.70
2018-08-07T00:25:23.742Z,19.50
2018-08-07T00:27:52.631Z,19.40
2018-08-07T00:30:21.576Z,19.30
2018-08-07T00:32:50.405Z,19.30
2018-08-07T00:35:20.344Z,19.30
2018-08-07T00:37:49.344Z,19.20
2018-08-07T00:40:19.026Z,19.20
2018-08-07T00:42:48.535Z,19.10
2018-08-07T00:45:19.589Z,19.20
2018-08-07T00:47:48.788Z,19.30
2018-08-07T00:50:19.391Z,19.40
2018-08-07T00:52:49.132Z,19.40
2018-08-07T00:55:18.806Z,19.40
2018-08-07T00:57:48.270Z,19.20
2018-08-07T01:00:17.201Z,19.10
2018-08-07T01:02:46.013Z,19.10
2018-08-07T01:05:17.181Z,19.10
2018-08-07T01:07:46.098Z,18.90
2018-08-07T01:10:17.016Z,18.80
2018-08-07T01:12:45.851Z,18.80
2018-08-07T01:15:19.350Z,18.80
2018-08-07T01:17:48.479Z,18.50
2018-08-07T01:20:19.981Z,18.60
2018-08-07T01:22:48.873Z,18.80
2018-08-07T01:25:19.850Z,18.80
2018-08-07T01:27:48.808Z,18.90
2018-08-07T01:30:27.785Z,19.00
2018-08-07T01:32:56.862Z,18.90
2018-08-07T01:35:26.759Z,18.80
2018-08-07T01:37:55.611Z,18.70
2018-08-07T01:40:24.480Z,18.60
2018-08-07T01:42:53.321Z,18.60
2018-08-07T01:45:22.163Z,18.50
2018-08-07T01:47:51.286Z,18.50
2018-08-07T01:50:20.189Z,18.50
2018-08-07T01:52:48.999Z,18.50
2018-08-07T01:55:24.589Z,18.60
2018-08-07T01:57:53.453Z,18.60
2018-08-07T02:00:22.288Z,18.60
2018-08-07T02:02:51.923Z,18.30
2018-08-07T02:05:20.824Z,18.30
2018-08-07T02:07:49.616Z,18.40
2018-08-07T02:10:19.665Z,18.40
2018-08-07T02:12:48.516Z,18.40
2018-08-07T02:15:17.551Z,18.40
2018-08-07T02:17:46.354Z,18.30
2018-08-07T02:20:16.426Z,18.20
2018-08-07T02:22:45.850Z,18.20
2018-08-07T02:25:16.296Z,18.00
2018-08-07T02:27:45.670Z,18.00
2018-08-07T02:30:15.514Z,18.10
2018-08-07T02:32:44.421Z,18.20
2018-08-07T02:35:14.512Z,18.00
2018-08-07T02:37:44.477Z,18.00
2018-08-07T02:40:14.166Z,17.80
2018-08-07T02:42:43.461Z,17.50
2018-08-07T02:45:14.557Z,17.50
2018-08-07T02:47:44.092Z,17.60
2018-08-07T02:50:16.998Z,17.70
2018-08-07T02:55:10.552Z,17.70
2018-08-07T02:57:40.042Z,17.70
2018-08-07T03:00:12.408Z,17.70
2018-08-07T03:02:41.225Z,17.80
2018-08-07T03:05:10.615Z,17.80
2018-08-07T03:07:39.726Z,17.80
2018-08-07T03:10:09.557Z,17.70
2018-08-07T03:12:38.740Z,17.70
2018-08-07T03:15:10.905Z,17.60
2018-08-07T03:17:39.733Z,17.50
2018-08-07T03:20:09.367Z,17.30
2018-08-07T03:22:38.422Z,17.30
2018-08-07T03:27:36.676Z,17.30
2018-08-07T03:30:08.481Z,17.20
2018-08-07T03:32:37.558Z,17.20
2018-08-07T03:35:06.410Z,17.40
2018-08-07T03:37:35.544Z,17.20
2018-08-07T03:40:06.028Z,17.10
2018-08-07T03:42:34.856Z,17.00
2018-08-07T03:45:03.705Z,16.90
2018-08-07T03:47:32.480Z,16.80
2018-08-07T03:50:01.387Z,16.90
2018-08-07T03:52:30.352Z,17.00
2018-08-07T03:54:59.190Z,17.10
2018-08-07T03:57:28.038Z,17.10
2018-08-07T03:59:56.858Z,17.20
2018-08-07T04:02:25.701Z,17.20
2018-08-07T04:04:54.527Z,17.30
2018-08-07T04:07:23.432Z,17.30
2018-08-07T04:09:52.236Z,17.10
2018-08-07T04:12:21.508Z,17.20
2018-08-07T04:14:54.800Z,17.30
2018-08-07T04:17:23.719Z,17.40
2018-08-07T04:19:52.634Z,17.40
2018-08-07T04:22:21.441Z,17.20
2018-08-07T04:27:19.144Z,17.20
2018-08-07T04:29:47.953Z,17.20
2018-08-07T04:32:16.805Z,17.30
2018-08-07T04:34:45.820Z,17.40
2018-08-07T04:37:14.638Z,17.50
2018-08-07T04:39:43.429Z,17.50
2018-08-07T04:42:12.244Z,17.50
2018-08-07T04:44:41.062Z,17.60
2018-08-07T04:47:09.917Z,17.70
2018-08-07T04:49:39.260Z,17.90
2018-08-07T04:52:08.124Z,17.90
2018-08-07T04:54:36.954Z,18.10
2018-08-07T04:57:06.113Z,18.60
2018-08-07T04:59:35.167Z,19.60
2018-08-07T05:02:04.053Z,20.90
2018-08-07T05:04:33.650Z,22.10
2018-08-07T05:07:02.488Z,23.10
2018-08-07T05:09:31.311Z,24.10
2018-08-07T05:12:00.148Z,25.10
2018-08-07T05:14:29.010Z,25.90
2018-08-07T05:16:57.797Z,26.70
2018-08-07T05:19:26.956Z,27.20
2018-08-07T05:21:55.799Z,27.60
2018-08-07T05:24:24.588Z,27.70
2018-08-07T05:26:54.026Z,28.00
2018-08-07T05:29:22.869Z,28.20
2018-08-07T05:31:51.745Z,28.20
2018-08-07T05:34:20.586Z,28.50
2018-08-07T05:36:49.827Z,28.60
2018-08-07T05:39:18.654Z,28.80
2018-08-07T05:41:47.468Z,28.90
2018-08-07T05:44:16.327Z,29.00
2018-08-07T05:46:45.516Z,28.80
2018-08-07T05:49:14.386Z,28.80
2018-08-07T05:51:43.264Z,28.90
2018-08-07T05:54:12.117Z,29.10
2018-08-07T05:56:40.985Z,29.20
2018-08-07T05:59:09.753Z,29.10
2018-08-07T06:01:38.662Z,29.00
2018-08-07T06:04:07.751Z,29.00
2018-08-07T06:06:36.577Z,29.30
2018-08-07T06:09:07.137Z,29.70
2018-08-07T06:11:36.081Z,30.00
2018-08-07T06:14:05.040Z,30.20
2018-08-07T06:16:33.899Z,30.30
2018-08-07T06:19:02.750Z,30.60
2018-08-07T06:21:31.592Z,30.60
2018-08-07T06:24:00.388Z,30.90
2018-08-07T06:26:29.296Z,31.10
2018-08-07T06:28:58.130Z,31.50
2018-08-07T06:31:27.006Z,31.70
2018-08-07T06:33:55.860Z,31.70
2018-08-07T06:36:24.647Z,31.90
2018-08-07T06:38:53.624Z,31.90
2018-08-07T06:41:22.472Z,31.80
2018-08-07T06:43:51.336Z,32.20
2018-08-07T06:46:20.141Z,32.00
2018-08-07T06:48:48.997Z,32.50
2018-08-07T06:51:17.927Z,32.80
2018-08-07T06:53:46.728Z,33.00
2018-08-07T06:56:15.625Z,32.80
2018-08-07T06:58:44.484Z,33.20
2018-08-07T07:01:13.277Z,33.80
2018-08-07T07:03:42.109Z,34.10
2018-08-07T07:06:11.306Z,34.30
2018-08-07T07:08:40.609Z,34.70
2018-08-07T07:11:09.777Z,34.80
2018-08-07T07:13:38.997Z,34.90
2018-08-07T07:16:08.081Z,34.70
2018-08-07T07:18:37.204Z,34.70
2018-08-07T07:21:06.960Z,34.70
2018-08-07T07:23:35.850Z,35.00
2018-08-07T07:26:04.763Z,35.10
2018-08-07T07:28:35.495Z,35.30
2018-08-07T07:31:06.566Z,35.50
2018-08-07T07:33:35.620Z,35.70
2018-08-07T07:36:04.528Z,35.30
2018-08-07T07:38:33.395Z,35.20
2018-08-07T07:41:03.074Z,35.10
2018-08-07T07:43:34.578Z,35.30
2018-08-07T07:46:05.349Z,35.80
2018-08-07T07:48:36.141Z,35.80
2018-08-07T07:51:05.217Z,36.00
2018-08-07T07:53:35.468Z,36.00
2018-08-07T07:56:04.646Z,36.20
2018-08-07T07:58:33.748Z,35.70
2018-08-07T08:03:32.121Z,35.30
2018-08-07T08:06:01.258Z,35.10
2018-08-07T08:08:30.686Z,35.10
2018-08-07T08:10:59.840Z,34.90
2018-08-07T08:13:29.139Z,34.70
2018-08-07T08:15:58.384Z,34.90
2018-08-07T08:18:27.244Z,35.20
2018-08-07T08:20:56.188Z,35.40
2018-08-07T08:23:25.012Z,35.50
2018-08-07T08:25:53.821Z,35.40
2018-08-07T08:28:22.685Z,35.70
2018-08-07T08:30:51.593Z,35.90
2018-08-07T08:33:20.389Z,36.40
2018-08-07T08:35:49.262Z,36.50
2018-08-07T08:38:18.060Z,36.00
2018-08-07T08:40:46.945Z,35.30
2018-08-07T08:43:15.807Z,35.20
2018-08-07T08:45:44.631Z,35.40
2018-08-07T08:48:13.481Z,35.50
2018-08-07T08:53:10.784Z,35.60
2018-08-07T08:55:39.637Z,35.40
2018-08-07T08:58:08.585Z,35.50
2018-08-07T09:00:37.472Z,35.40
2018-08-07T09:03:06.794Z,35.60
2018-08-07T09:05:35.677Z,35.90
2018-08-07T09:08:04.843Z,36.10
2018-08-07T09:10:33.867Z,36.00
2018-08-07T09:13:02.887Z,36.50
2018-08-07T09:15:31.776Z,36.20
2018-08-07T09:18:00.620Z,36.60
2018-08-07T09:20:30.981Z,36.70
2018-08-07T09:23:00.159Z,37.00
2018-08-07T09:25:30.393Z,36.90
2018-08-07T09:27:59.177Z,36.30
2018-08-07T09:30:29.409Z,36.40
2018-08-07T09:32:59.189Z,36.50
2018-08-07T09:35:28.009Z,36.10
2018-08-07T09:37:57.722Z,36.00
2018-08-07T09:40:26.647Z,35.60
2018-08-07T09:42:56.314Z,35.90
2018-08-07T09:45:28.878Z,36.30
2018-08-07T09:47:57.837Z,36.50
2018-08-07T09:50:26.729Z,36.60
2018-08-07T09:52:55.552Z,36.30
2018-08-07T09:55:24.432Z,36.00
2018-08-07T09:57:53.291Z,36.30
2018-08-07T10:00:27.736Z,36.40
2018-08-07T10:02:59.424Z,36.70
2018-08-07T10:05:29.725Z,37.30
2018-08-07T10:07:58.562Z,37.60
2018-08-07T10:10:27.647Z,37.60
2018-08-07T10:12:56.516Z,37.60
2018-08-07T10:15:25.311Z,37.10
2018-08-07T10:17:54.230Z,36.60
2018-08-07T10:20:23.103Z,36.60
2018-08-07T10:22:52.042Z,36.90
2018-08-07T10:25:21.340Z,37.30
2018-08-07T10:27:50.371Z,37.20
2018-08-07T10:30:21.808Z,37.50
2018-08-07T10:32:51.388Z,37.70
2018-08-07T10:35:20.723Z,37.60
2018-08-07T10:37:50.085Z,38.00
2018-08-07T10:40:24.951Z,37.20
2018-08-07T10:42:56.302Z,37.00
2018-08-07T10:45:28.115Z,37.10
2018-08-07T10:47:59.870Z,37.30
2018-08-07T10:54:19.464Z,38.10
2018-08-07T10:56:50.726Z,38.00
2018-08-07T11:02:53.623Z,38.20
2018-08-07T11:05:25.541Z,37.30
2018-08-07T11:07:56.947Z,37.10
2018-08-07T11:10:28.344Z,37.00
2018-08-07T11:13:00.456Z,37.30
2018-08-07T11:15:34.874Z,37.60
2018-08-07T11:18:06.379Z,37.60
2018-08-07T11:20:37.642Z,37.80
2018-08-07T11:23:09.238Z,38.10
2018-08-07T11:25:40.792Z,38.60
2018-08-07T11:28:12.308Z,38.90
2018-08-07T11:30:43.654Z,39.30
2018-08-07T11:33:15.036Z,39.30
2018-08-07T11:35:46.435Z,39.30
2018-08-07T11:38:17.976Z,39.50
2018-08-07T11:40:49.294Z,39.80
2018-08-07T11:43:20.518Z,39.90
2018-08-07T11:45:51.729Z,40.00
2018-08-07T11:48:23.102Z,40.10
2018-08-07T11:50:54.484Z,39.70
2018-08-07T11:53:25.775Z,39.60
2018-08-07T11:55:57.145Z,39.70
2018-08-07T11:58:28.316Z,39.90
2018-08-07T12:00:59.706Z,39.80
2018-08-07T12:03:31.043Z,39.80
2018-08-07T12:06:02.735Z,39.70
2018-08-07T12:08:33.984Z,39.50
2018-08-07T12:11:05.340Z,39.30
2018-08-07T12:13:36.803Z,39.30
2018-08-07T12:16:08.845Z,39.50
2018-08-07T12:18:40.100Z,39.70
2018-08-07T12:21:11.708Z,39.70
2018-08-07T12:23:43.213Z,39.90
2018-08-07T12:26:14.687Z,40.30
2018-08-07T12:28:45.859Z,40.60
2018-08-07T12:31:17.389Z,40.60
2018-08-07T12:33:48.812Z,40.20
2018-08-07T12:36:20.119Z,40.30
2018-08-07T12:38:51.570Z,40.40
2018-08-07T12:41:22.779Z,40.50
2018-08-07T12:43:54.121Z,40.50
2018-08-07T12:46:25.483Z,40.20
2018-08-07T12:48:58.492Z,40.50
2018-08-07T12:51:29.889Z,40.90
2018-08-07T12:54:04.123Z,41.30
2018-08-07T12:56:36.193Z,41.40
2018-08-07T12:59:07.656Z,41.50
2018-08-07T13:01:39.212Z,41.00
2018-08-07T13:04:10.517Z,40.80
2018-08-07T13:06:42.320Z,41.40
2018-08-07T13:09:14.702Z,41.50
2018-08-07T13:11:46.032Z,41.70
2018-08-07T13:14:17.561Z,41.90
2018-08-07T13:16:49.063Z,42.40
2018-08-07T13:19:21.097Z,42.50
2018-08-07T13:21:52.499Z,42.40
2018-08-07T13:24:23.945Z,42.30
2018-08-07T13:26:56.242Z,42.00
2018-08-07T13:29:27.519Z,41.90
2018-08-07T13:31:58.837Z,42.00
2018-08-07T13:34:30.128Z,42.50
2018-08-07T13:37:01.719Z,42.10
2018-08-07T13:39:33.001Z,41.80
2018-08-07T13:42:04.585Z,42.10
2018-08-07T13:44:35.940Z,41.80
2018-08-07T13:47:07.549Z,41.50
2018-08-07T13:49:39.153Z,41.40
2018-08-07T13:52:10.568Z,41.30
2018-08-07T13:57:24.823Z,41.40
2018-08-07T13:59:56.101Z,41.40
2018-08-07T14:02:27.723Z,41.60
2018-08-07T14:04:58.986Z,41.40
2018-08-07T14:07:30.317Z,41.40
2018-08-07T14:10:01.716Z,41.20
2018-08-07T14:12:33.336Z,40.90
2018-08-07T14:19:27.101Z,40.90
2018-08-07T14:21:58.565Z,41.00
2018-08-07T14:24:30.479Z,40.70
2018-08-07T14:27:02.630Z,40.70
2018-08-07T14:30:25.768Z,40.70
2018-08-07T14:32:57.670Z,40.60
2018-08-07T14:35:29.264Z,39.90
2018-08-07T14:38:01.205Z,40.10
2018-08-07T14:40:32.681Z,40.10
2018-08-07T14:43:04.289Z,40.00
2018-08-07T14:45:42.696Z,39.80
2018-08-07T14:48:14.039Z,39.50
2018-08-07T14:50:45.476Z,39.40
2018-08-07T14:53:16.740Z,39.30
2018-08-07T14:55:48.124Z,39.50
2018-08-07T14:58:19.521Z,39.60
2018-08-07T15:00:50.866Z,39.40
2018-08-07T15:03:22.501Z,39.50
2018-08-07T15:05:54.058Z,39.80
2018-08-07T15:08:25.414Z,39.70
2018-08-07T15:10:57.036Z,39.70
2018-08-07T15:13:28.445Z,39.50
2018-08-07T15:15:59.658Z,39.30
2018-08-07T15:18:31.001Z,39.30
2018-08-07T15:21:02.570Z,38.90
2018-08-07T15:23:36.696Z,38.80
2018-08-07T15:26:08.041Z,38.90
2018-08-07T15:28:39.265Z,39.10
2018-08-07T15:31:11.710Z,39.30
2018-08-07T15:33:58.318Z,39.30
2018-08-07T15:36:29.595Z,39.30
2018-08-07T15:39:03.803Z,38.90
2018-08-07T15:41:37.516Z,39.00
2018-08-07T15:44:09.588Z,39.00
2018-08-07T15:46:49.268Z,39.00
2018-08-07T15:49:22.480Z,38.70
2018-08-07T15:51:54.184Z,38.40
2018-08-07T15:54:26.677Z,38.50
2018-08-07T15:56:59.465Z,38.50
2018-08-07T15:59:33.645Z,38.50
2018-08-07T16:02:05.323Z,38.60
2018-08-07T16:04:37.488Z,38.40
2018-08-07T16:07:09.056Z,38.30
2018-08-07T16:09:40.412Z,38.30
2018-08-07T16:12:12.219Z,38.00
2018-08-07T16:14:43.815Z,37.80
2018-08-07T16:17:16.060Z,37.70
2018-08-07T16:19:47.548Z,37.60
2018-08-07T16:22:19.298Z,37.60
2018-08-07T16:24:50.912Z,37.50
2018-08-07T16:27:22.429Z,37.60
2018-08-07T16:29:54.479Z,37.60
2018-08-07T16:32:26.084Z,37.60
2018-08-07T16:34:57.692Z,37.70
2018-08-07T16:37:28.904Z,37.50
2018-08-07T16:40:00.485Z,37.50
2018-08-07T16:42:31.909Z,37.50
2018-08-07T16:45:03.120Z,37.40
2018-08-07T16:47:34.599Z,37.30
2018-08-07T16:50:06.788Z,37.20
2018-08-07T16:52:38.158Z,37.20
2018-08-07T16:55:11.172Z,37.10
2018-08-07T16:57:43.006Z,37.00
2018-08-07T17:00:15.359Z,37.00
2018-08-07T17:02:46.833Z,37.00
2018-08-07T17:05:20.417Z,37.00
2018-08-07T17:07:52.462Z,36.90
2018-08-07T17:10:28.642Z,36.90
2018-08-07T17:13:00.662Z,36.80
2018-08-07T17:15:31.941Z,36.80
2018-08-07T17:18:04.189Z,36.70
2018-08-07T17:20:35.820Z,36.60
2018-08-07T17:25:37.436Z,36.50
2018-08-07T17:28:09.269Z,36.40
2018-08-07T17:30:41.156Z,36.20
2018-08-07T17:33:12.556Z,36.00
2018-08-07T17:35:44.388Z,35.80
2018-08-07T17:38:15.679Z,35.70
2018-08-07T17:40:47.620Z,35.50
2018-08-07T17:43:19.055Z,35.30
2018-08-07T17:45:50.333Z,35.20
2018-08-07T17:48:22.008Z,35.00
2018-08-07T17:50:53.391Z,34.90
2018-08-07T17:53:25.225Z,34.60
2018-08-07T17:55:56.675Z,34.40
2018-08-07T17:58:28.032Z,34.00
2018-08-07T18:00:59.495Z,33.80
2018-08-07T18:03:30.892Z,33.80
2018-08-07T18:06:02.409Z,33.60
2018-08-07T18:08:33.756Z,33.60
2018-08-07T18:11:05.043Z,33.40
2018-08-07T18:13:36.307Z,33.30
2018-08-07T18:16:08.499Z,33.30
2018-08-07T18:18:40.112Z,33.20
2018-08-07T18:21:11.823Z,33.10
2018-08-07T18:23:44.227Z,33.00
2018-08-07T18:26:15.610Z,32.80
2018-08-07T18:28:47.113Z,32.60
2018-08-07T18:31:18.551Z,32.50
2018-08-07T18:33:50.053Z,32.40
2018-08-07T18:36:22.059Z,32.40
2018-08-07T18:38:53.468Z,32.30
2018-08-07T18:41:25.335Z,32.20
2018-08-07T18:43:57.111Z,32.00
2018-08-07T18:46:28.871Z,31.90
2018-08-07T18:49:03.801Z,31.80
2018-08-07T18:51:35.409Z,31.80
2018-08-07T18:54:06.620Z,31.70
2018-08-07T18:56:38.255Z,31.70
2018-08-07T18:59:09.718Z,31.50
2018-08-07T19:01:41.649Z,31.50
2018-08-07T19:04:13.148Z,31.50
2018-08-07T19:06:44.902Z,31.60
2018-08-07T19:09:16.471Z,31.50
2018-08-07T19:11:47.855Z,31.50
2018-08-07T19:14:20.279Z,31.40
2018-08-07T19:16:52.054Z,31.30
2018-08-07T19:19:24.180Z,31.10
2018-08-07T19:21:55.907Z,31.00
2018-08-07T19:24:27.487Z,30.90
2018-08-07T19:26:59.669Z,30.70
2018-08-07T19:29:31.251Z,30.60
2018-08-07T19:32:03.138Z,30.40
2018-08-07T19:34:34.720Z,30.20
2018-08-07T19:37:06.343Z,29.90
2018-08-07T19:39:37.964Z,29.70
2018-08-07T19:42:10.235Z,29.60
2018-08-07T19:44:41.857Z,29.60
2018-08-07T19:47:13.440Z,29.50
2018-08-07T19:49:44.984Z,29.40
2018-08-07T19:52:16.569Z,29.20
2018-08-07T19:54:48.200Z,29.10
2018-08-07T19:57:19.835Z,29.10
2018-08-07T19:59:51.551Z,29.10
2018-08-07T20:02:23.439Z,29.10
2018-08-07T20:04:55.364Z,28.90
2018-08-07T20:07:29.319Z,28.70
2018-08-07T20:10:00.666Z,28.50
2018-08-07T20:12:32.526Z,28.40
2018-08-07T20:15:03.735Z,28.20
2018-08-07T20:17:35.497Z,28.20
2018-08-07T20:20:09.007Z,28.20
2018-08-07T20:22:40.696Z,28.10
2018-08-07T20:25:13.059Z,28.10
2018-08-07T20:27:44.867Z,27.90
2018-08-07T20:30:17.707Z,27.80
2018-08-07T20:35:22.105Z,27.20
2018-08-07T20:37:53.621Z,26.80
2018-08-07T20:40:27.627Z,26.80
2018-08-07T20:43:00.680Z,26.60
2018-08-07T20:45:32.437Z,26.50
2018-08-07T20:48:04.522Z,26.40
2018-08-07T20:50:36.013Z,26.30
2018-08-07T20:53:07.699Z,26.20
2018-08-07T20:55:39.892Z,26.20
2018-08-07T20:58:11.433Z,26.20
2018-08-07T21:00:43.479Z,26.20
2018-08-07T21:03:14.906Z,26.20
2018-08-07T21:05:46.459Z,26.20
2018-08-07T21:08:17.988Z,26.10
2018-08-07T21:10:49.452Z,26.00
2018-08-07T21:13:20.967Z,25.80
2018-08-07T21:15:52.430Z,25.50
2018-08-07T21:18:23.946Z,25.30
2018-08-07T21:20:55.728Z,25.20
2018-08-07T21:23:27.061Z,25.00
2018-08-07T21:25:58.759Z,24.90
2018-08-07T21:28:30.039Z,24.90
2018-08-07T21:31:01.756Z,24.70
2018-08-07T21:33:34.037Z,24.50
2018-08-07T21:36:05.765Z,24.50
2018-08-07T21:38:37.430Z,24.40
2018-08-07T21:41:09.098Z,24.40
2018-08-07T21:43:40.273Z,24.40
2018-08-07T21:46:12.083Z,24.40
2018-08-07T21:48:43.888Z,24.50
2018-08-07T21:51:15.484Z,24.50
2018-08-07T21:53:47.097Z,24.60
2018-08-07T21:58:49.836Z,24.70
2018-08-07T22:01:21.126Z,24.60
2018-08-07T22:03:52.537Z,24.30
2018-08-07T22:06:24.368Z,24.20
2018-08-07T22:11:26.224Z,24.10
2018-08-07T22:16:27.955Z,23.80
2018-08-07T22:19:01.105Z,23.50
2018-08-07T22:21:32.502Z,23.50
2018-08-07T22:24:05.353Z,23.40
2018-08-07T22:26:36.961Z,23.30
2018-08-07T22:29:08.570Z,23.40
2018-08-07T22:31:39.960Z,23.50
2018-08-07T22:34:11.486Z,23.40
2018-08-07T22:36:43.185Z,23.20
2018-08-07T22:39:14.740Z,23.10
2018-08-07T22:44:16.567Z,23.20
2018-08-07T22:46:48.044Z,23.20
2018-08-07T22:51:50.665Z,23.10
2018-08-07T22:54:22.777Z,23.20
2018-08-07T22:56:54.491Z,23.40
2018-08-07T22:59:26.658Z,23.50
2018-08-07T23:01:58.531Z,23.50
2018-08-07T23:04:30.127Z,23.30
2018-08-07T23:07:02.159Z,23.30
2018-08-07T23:09:33.336Z,23.40
2018-08-07T23:12:04.741Z,23.40
2018-08-07T23:14:36.139Z,23.40
2018-08-07T23:17:07.551Z,23.40
2018-08-07T23:19:39.051Z,23.30
2018-08-07T23:22:10.633Z,23.40
2018-08-07T23:24:42.335Z,23.50
2018-08-07T23:27:13.652Z,23.40
2018-08-07T23:29:45.168Z,23.40
2018-08-07T23:32:16.498Z,23.30
2018-08-07T23:37:18.445Z,23.10
2018-08-07T23:39:49.828Z,23.00
2018-08-07T23:42:39.273Z,23.00
2018-08-07T23:45:12.517Z,22.90
2018-08-07T23:47:44.294Z,22.70
2018-08-07T23:50:16.511Z,22.70
2018-08-07T23:52:47.947Z,22.70
2018-08-07T23:55:21.291Z,22.80
2018-08-07T23:57:53.032Z,22.90
